createdAt,value
2018-07-17T00:00:29.124Z,1.60
2018-07-17T00:02:57.546Z,1.53
2018-07-17T00:05:28.007Z,1.80
2018-07-17T00:07:58.947Z,1.50
2018-07-17T00:10:27.305Z,1.70
2018-07-17T00:12:55.708Z,1.67
2018-07-17T00:15:24.385Z,1.70
2018-07-17T00:17:53.039Z,1.63
2018-07-17T00:20:21.520Z,1.47
2018-07-17T00:22:49.999Z,1.40
2018-07-17T00:25:18.563Z,1.60
2018-07-17T00:27:47.167Z,1.57
2018-07-17T00:30:15.623Z,1.63
2018-07-17T00:32:44.099Z,1.57
2018-07-17T00:35:12.578Z,1.60
2018-07-17T00:37:40.794Z,1.23
2018-07-17T00:40:09.428Z,1.53
2018-07-17T00:42:38.483Z,1.20
2018-07-17T00:45:07.541Z,1.50
2018-07-17T00:47:36.033Z,1.80
2018-07-17T00:50:04.764Z,1.53
2018-07-17T00:52:33.230Z,1.70
2018-07-17T00:55:01.684Z,1.40
2018-07-17T00:57:30.130Z,1.30
2018-07-17T00:59:58.594Z,1.37
2018-07-17T01:02:32.554Z,1.63
2018-07-17T01:05:06.282Z,1.73
2018-07-17T01:07:39.965Z,1.57
2018-07-17T01:10:13.640Z,1.67
2018-07-17T01:12:41.309Z,1.40
2018-07-17T01:15:15.097Z,1.70
2018-07-17T01:17:43.599Z,1.87
2018-07-17T01:20:12.160Z,1.50
2018-07-17T01:22:40.862Z,1.40
2018-07-17T01:25:09.274Z,1.50
2018-07-17T01:27:38.075Z,1.57
2018-07-17T01:30:07.098Z,1.53
2018-07-17T01:32:35.768Z,1.30
2018-07-17T01:35:04.213Z,1.63
2018-07-17T01:37:32.889Z,1.40
2018-07-17T01:40:01.422Z,1.67
2018-07-17T01:42:29.908Z,1.87
2018-07-17T01:44:58.327Z,1.47
2018-07-17T01:47:26.767Z,1.50
2018-07-17T01:49:55.371Z,1.57
2018-07-17T01:52:25.513Z,1.53
2018-07-17T01:54:55.048Z,1.37
2018-07-17T01:57:24.638Z,1.60
2018-07-17T01:59:53.754Z,1.47
2018-07-17T02:02:22.232Z,1.50
2018-07-17T02:04:50.684Z,1.60
2018-07-17T02:07:19.130Z,1.60
2018-07-17T02:09:47.900Z,1.30
2018-07-17T02:12:16.348Z,1.53
2018-07-17T02:14:44.890Z,1.63
2018-07-17T02:17:14.627Z,1.53
2018-07-17T02:19:43.286Z,1.47
2018-07-17T02:22:11.754Z,1.23
2018-07-17T02:24:40.704Z,1.20
2018-07-17T02:27:09.148Z,1.40
2018-07-17T02:29:37.949Z,1.40
2018-07-17T02:32:06.700Z,1.33
2018-07-17T02:34:35.221Z,1.20
2018-07-17T02:37:03.622Z,1.77
2018-07-17T02:39:32.041Z,1.67
2018-07-17T02:42:00.499Z,1.57
2018-07-17T02:44:28.986Z,1.60
2018-07-17T02:46:57.426Z,1.40
2018-07-17T02:49:25.572Z,1.10
2018-07-17T02:51:54.014Z,1.80
2018-07-17T02:54:22.487Z,1.60
2018-07-17T02:56:50.912Z,1.50
2018-07-17T02:59:19.403Z,1.03
2018-07-17T03:01:47.809Z,1.40
2018-07-17T03:04:16.315Z,1.40
2018-07-17T03:06:44.751Z,1.40
2018-07-17T03:09:13.200Z,1.17
2018-07-17T03:11:41.628Z,1.60
2018-07-17T03:14:10.046Z,1.40
2018-07-17T03:16:39.424Z,1.70
2018-07-17T03:19:07.854Z,1.53
2018-07-17T03:21:36.474Z,1.20
2018-07-17T03:24:04.930Z,1.17
2018-07-17T03:26:33.037Z,1.30
2018-07-17T03:29:01.483Z,1.53
2018-07-17T03:31:29.925Z,1.57
2018-07-17T03:33:58.365Z,1.27
2018-07-17T03:36:26.776Z,1.33
2018-07-17T03:38:55.175Z,1.23
2018-07-17T03:41:23.598Z,1.20
2018-07-17T03:43:52.049Z,1.30
2018-07-17T03:46:20.522Z,1.30
2018-07-17T03:48:48.924Z,1.40
2018-07-17T03:51:17.383Z,1.33
2018-07-17T03:53:45.860Z,1.60
2018-07-17T03:56:14.312Z,1.23
2018-07-17T03:58:42.794Z,1.60
2018-07-17T04:01:11.261Z,1.27
2018-07-17T04:03:39.714Z,1.53
2018-07-17T04:06:08.172Z,1.40
2018-07-17T04:08:36.769Z,1.20
2018-07-17T04:11:05.220Z,1.20
2018-07-17T04:13:33.605Z,1.60
2018-07-17T04:16:02.029Z,1.40
2018-07-17T04:18:30.167Z,1.50
2018-07-17T04:20:58.605Z,1.20
2018-07-17T04:23:27.000Z,1.37
2018-07-17T04:25:55.440Z,1.50
2018-07-17T04:28:23.870Z,1.20
2018-07-17T04:30:52.288Z,1.67
2018-07-17T04:33:21.062Z,1.47
2018-07-17T04:35:49.588Z,1.30
2018-07-17T04:38:18.155Z,1.30
2018-07-17T04:40:46.636Z,1.50
2018-07-17T04:43:15.092Z,1.60
2018-07-17T04:45:43.265Z,1.60
2018-07-17T04:48:11.689Z,1.40
2018-07-17T04:50:40.348Z,1.20
2018-07-17T04:53:08.804Z,1.10
2018-07-17T04:55:37.361Z,1.47
2018-07-17T04:58:05.778Z,1.63
2018-07-17T05:00:34.260Z,1.17
2018-07-17T05:03:02.668Z,1.30
2018-07-17T05:05:31.216Z,1.40
2018-07-17T05:07:59.659Z,1.37
2018-07-17T05:10:28.086Z,1.30
2018-07-17T05:12:56.579Z,1.37
2018-07-17T05:15:25.013Z,1.10
2018-07-17T05:17:53.494Z,1.20
2018-07-17T05:20:22.027Z,1.30
2018-07-17T05:22:50.560Z,1.30
2018-07-17T05:25:18.959Z,1.10
2018-07-17T05:27:47.409Z,1.40
2018-07-17T05:30:15.912Z,1.30
2018-07-17T05:32:44.420Z,1.53
2018-07-17T05:35:12.869Z,1.20
2018-07-17T05:37:41.310Z,1.20
2018-07-17T05:40:09.754Z,1.40
2018-07-17T05:42:38.544Z,1.20
2018-07-17T05:45:06.961Z,1.57
2018-07-17T05:47:39.621Z,1.30
2018-07-17T05:50:08.638Z,1.20
2018-07-17T05:52:37.106Z,1.20
2018-07-17T05:55:05.524Z,1.10
2018-07-17T05:57:33.932Z,1.20
2018-07-17T06:00:02.330Z,0.90
2018-07-17T06:02:30.741Z,1.30
2018-07-17T06:04:59.241Z,1.50
2018-07-17T06:07:27.689Z,1.20
2018-07-17T06:09:56.162Z,1.40
2018-07-17T06:12:24.583Z,1.17
2018-07-17T06:14:52.969Z,1.03
2018-07-17T06:17:21.376Z,1.40
2018-07-17T06:19:49.782Z,1.30
2018-07-17T06:22:18.237Z,1.13
2018-07-17T06:24:46.726Z,1.10
2018-07-17T06:27:15.166Z,1.20
2018-07-17T06:29:43.580Z,1.30
2018-07-17T06:32:12.017Z,1.13
2018-07-17T06:34:41.012Z,1.20
2018-07-17T06:37:09.413Z,1.20
2018-07-17T06:39:38.097Z,1.70
2018-07-17T06:42:06.847Z,1.00
2018-07-17T06:44:35.286Z,1.10
2018-07-17T06:47:03.702Z,1.20
2018-07-17T06:49:31.828Z,1.10
2018-07-17T06:52:00.259Z,1.10
2018-07-17T06:54:28.672Z,1.10
2018-07-17T06:56:57.156Z,1.00
2018-07-17T06:59:25.583Z,1.20
2018-07-17T07:01:54.006Z,1.30
2018-07-17T07:04:23.462Z,1.13
2018-07-17T07:06:51.892Z,1.30
2018-07-17T07:09:20.474Z,1.20
2018-07-17T07:11:48.916Z,1.17
2018-07-17T07:14:17.301Z,1.20
2018-07-17T07:16:45.797Z,1.10
2018-07-17T07:19:14.219Z,1.20
2018-07-17T07:21:42.670Z,1.27
2018-07-17T07:24:11.109Z,1.23
2018-07-17T07:26:39.740Z,1.00
2018-07-17T07:29:08.256Z,1.17
2018-07-17T07:31:36.708Z,1.07
2018-07-17T07:34:05.139Z,1.30
2018-07-17T07:36:33.557Z,1.17
2018-07-17T07:39:01.941Z,1.40
2018-07-17T07:41:30.424Z,1.20
2018-07-17T07:43:58.876Z,1.30
2018-07-17T07:46:27.325Z,1.17
2018-07-17T07:48:55.727Z,1.27
2018-07-17T07:51:24.117Z,1.23
2018-07-17T07:53:52.517Z,0.90
2018-07-17T07:56:20.938Z,1.27
2018-07-17T07:58:49.353Z,1.23
2018-07-17T08:01:18.264Z,1.33
2018-07-17T08:03:53.090Z,1.70
2018-07-17T08:06:21.409Z,1.30
2018-07-17T08:08:49.813Z,1.20
2018-07-17T08:11:18.196Z,1.40
2018-07-17T08:13:46.725Z,1.10
2018-07-17T08:16:15.133Z,1.30
2018-07-17T08:18:43.558Z,1.30
2018-07-17T08:21:12.196Z,1.30
2018-07-17T08:23:40.912Z,1.20
2018-07-17T08:26:09.553Z,1.10
2018-07-17T08:28:38.223Z,1.20
2018-07-17T08:31:07.332Z,1.10
2018-07-17T08:33:36.466Z,1.03
2018-07-17T08:36:04.861Z,1.60
2018-07-17T08:38:33.364Z,1.50
2018-07-17T08:41:01.774Z,1.40
2018-07-17T08:43:30.306Z,1.27
2018-07-17T08:45:58.686Z,1.13
2018-07-17T08:48:27.248Z,1.20
2018-07-17T08:50:55.705Z,1.23
2018-07-17T08:53:24.133Z,1.33
2018-07-17T08:55:52.527Z,1.57
2018-07-17T08:58:20.954Z,1.30
2018-07-17T09:00:49.367Z,1.20
2018-07-17T09:03:17.820Z,1.30
2018-07-17T09:05:46.197Z,1.30
2018-07-17T09:08:14.670Z,1.17
2018-07-17T09:10:43.322Z,1.20
2018-07-17T09:13:12.055Z,1.53
2018-07-17T09:15:40.521Z,1.20
2018-07-17T09:18:09.060Z,1.27
2018-07-17T09:20:39.727Z,1.40
2018-07-17T09:23:08.220Z,1.50
2018-07-17T09:25:36.665Z,1.33
2018-07-17T09:28:05.116Z,1.40
2018-07-17T09:30:39.186Z,1.37
2018-07-17T09:33:07.595Z,1.50
2018-07-17T09:35:36.007Z,1.20
2018-07-17T09:38:04.612Z,1.33
2018-07-17T09:40:32.976Z,1.30
2018-07-17T09:43:01.421Z,1.47
2018-07-17T09:45:29.989Z,1.23
2018-07-17T09:47:58.143Z,1.60
2018-07-17T09:50:26.537Z,1.60
2018-07-17T09:52:55.104Z,1.20
2018-07-17T09:55:23.485Z,1.40
2018-07-17T09:57:51.925Z,1.20
2018-07-17T10:00:25.484Z,1.40
2018-07-17T10:02:53.890Z,1.30
2018-07-17T10:05:22.370Z,1.33
2018-07-17T10:07:50.857Z,1.10
2018-07-17T10:10:19.253Z,1.40
2018-07-17T10:12:47.625Z,1.43
2018-07-17T10:15:16.054Z,1.40
2018-07-17T10:17:44.441Z,1.30
2018-07-17T10:20:12.901Z,1.30
2018-07-17T10:22:41.277Z,1.33
2018-07-17T10:25:10.029Z,1.20
2018-07-17T10:27:38.966Z,1.00
2018-07-17T10:30:07.521Z,1.40
2018-07-17T10:32:36.228Z,1.40
2018-07-17T10:35:04.722Z,1.50
2018-07-17T10:37:35.809Z,1.20
2018-07-17T10:40:05.008Z,1.10
2018-07-17T10:42:33.427Z,1.20
2018-07-17T10:45:01.849Z,1.20
2018-07-17T10:47:31.510Z,1.50
2018-07-17T10:49:59.916Z,1.20
2018-07-17T10:52:28.364Z,1.17
2018-07-17T10:54:56.789Z,0.90
2018-07-17T10:57:25.052Z,1.00
2018-07-17T10:59:53.494Z,1.10
2018-07-17T11:02:21.909Z,1.27
2018-07-17T11:04:50.353Z,1.50
2018-07-17T11:07:18.776Z,1.10
2018-07-17T11:09:47.325Z,1.20
2018-07-17T11:12:15.745Z,1.23
2018-07-17T11:14:44.468Z,1.30
2018-07-17T11:17:12.866Z,0.97
2018-07-17T11:19:41.276Z,1.20
2018-07-17T11:22:09.640Z,1.40
2018-07-17T11:24:39.373Z,1.30
2018-07-17T11:27:08.098Z,1.10
2018-07-17T11:29:36.592Z,1.60
2018-07-17T11:32:05.038Z,1.20
2018-07-17T11:34:33.413Z,1.20
2018-07-17T11:37:01.797Z,1.20
2018-07-17T11:39:30.690Z,1.10
2018-07-17T11:41:59.106Z,1.53
2018-07-17T11:44:27.538Z,1.30
2018-07-17T11:46:55.635Z,1.17
2018-07-17T11:49:24.062Z,1.10
2018-07-17T11:51:52.478Z,1.17
2018-07-17T11:54:21.011Z,1.30
2018-07-17T11:56:49.400Z,1.07
2018-07-17T11:59:17.905Z,1.10
2018-07-17T12:01:46.367Z,1.30
2018-07-17T12:04:14.762Z,1.00
2018-07-17T12:06:43.225Z,1.43
2018-07-17T12:09:11.721Z,1.53
2018-07-17T12:11:40.774Z,1.30
2018-07-17T12:14:09.165Z,1.53
2018-07-17T12:16:38.036Z,1.30
2018-07-17T12:19:06.463Z,1.30
2018-07-17T12:21:34.915Z,1.17
2018-07-17T12:24:03.485Z,1.10
2018-07-17T12:26:32.009Z,1.10
2018-07-17T12:29:00.385Z,1.10
2018-07-17T12:31:28.770Z,1.30
2018-07-17T12:33:57.196Z,1.20
2018-07-17T12:36:25.593Z,1.10
2018-07-17T12:38:54.025Z,1.37
2018-07-17T12:41:22.648Z,1.43
2018-07-17T12:43:51.145Z,1.27
2018-07-17T12:46:19.523Z,1.20
2018-07-17T12:48:48.205Z,1.43
2018-07-17T12:51:16.756Z,1.37
2018-07-17T12:53:45.330Z,1.50
2018-07-17T12:56:13.929Z,1.00
2018-07-17T12:58:42.348Z,1.10
2018-07-17T13:01:10.812Z,1.20
2018-07-17T13:03:39.308Z,1.20
2018-07-17T13:06:08.478Z,1.17
2018-07-17T13:08:37.149Z,1.57
2018-07-17T13:11:05.880Z,1.27
2018-07-17T13:13:34.669Z,1.20
2018-07-17T13:16:03.295Z,1.30
2018-07-17T13:18:31.710Z,1.27
2018-07-17T13:21:00.157Z,1.43
2018-07-17T13:23:28.627Z,1.30
2018-07-17T13:25:59.836Z,1.50
2018-07-17T13:28:28.265Z,1.30
2018-07-17T13:30:56.664Z,1.30
2018-07-17T13:33:25.929Z,1.30
2018-07-17T13:35:55.718Z,1.50
2018-07-17T13:38:24.882Z,1.30
2018-07-17T13:40:55.650Z,1.67
2018-07-17T13:43:24.290Z,1.30
2018-07-17T13:45:53.532Z,1.37
2018-07-17T13:48:21.981Z,1.10
2018-07-17T13:50:50.447Z,1.33
2018-07-17T13:53:19.016Z,1.20
2018-07-17T13:55:47.552Z,1.50
2018-07-17T13:58:21.057Z,1.47
2018-07-17T14:00:49.595Z,1.60
2018-07-17T14:03:19.747Z,1.30
2018-07-17T14:05:48.337Z,1.30
2018-07-17T14:08:16.816Z,1.50
2018-07-17T14:10:46.517Z,1.30
2018-07-17T14:13:17.650Z,1.20
2018-07-17T14:15:48.261Z,1.17
2018-07-17T14:18:16.745Z,1.30
2018-07-17T14:20:46.124Z,1.40
2018-07-17T14:23:14.582Z,1.20
2018-07-17T14:25:43.036Z,1.60
2018-07-17T14:28:11.445Z,1.10
2018-07-17T14:30:41.132Z,1.20
2018-07-17T14:33:09.565Z,1.50
2018-07-17T14:35:39.315Z,1.10
2018-07-17T14:38:07.814Z,1.10
2018-07-17T14:40:36.317Z,1.30
2018-07-17T14:43:05.112Z,1.47
2018-07-17T14:45:33.712Z,1.10
2018-07-17T14:48:02.102Z,1.40
2018-07-17T14:50:30.600Z,1.10
2018-07-17T14:52:59.041Z,1.37
2018-07-17T14:55:27.436Z,1.40
2018-07-17T14:57:55.925Z,1.10
2018-07-17T15:00:24.930Z,1.37
2018-07-17T15:02:53.296Z,1.30
2018-07-17T15:05:21.685Z,1.10
2018-07-17T15:07:50.042Z,1.30
2018-07-17T15:10:18.401Z,1.60
2018-07-17T15:12:46.825Z,1.40
2018-07-17T15:15:15.340Z,1.40
2018-07-17T15:17:43.727Z,1.60
2018-07-17T15:20:12.085Z,1.30
2018-07-17T15:22:40.727Z,1.40
2018-07-17T15:25:09.285Z,1.20
2018-07-17T15:27:37.951Z,1.20
2018-07-17T15:30:06.573Z,1.37
2018-07-17T15:32:34.961Z,1.50
2018-07-17T15:35:03.700Z,1.30
2018-07-17T15:37:31.848Z,1.20
2018-07-17T15:40:00.376Z,1.60
2018-07-17T15:42:28.928Z,1.10
2018-07-17T15:44:57.341Z,1.30
2018-07-17T15:47:25.769Z,1.30
2018-07-17T15:49:54.178Z,1.70
2018-07-17T15:52:22.589Z,1.43
2018-07-17T15:54:50.974Z,1.60
2018-07-17T15:57:19.497Z,1.53
2018-07-17T15:59:49.007Z,1.50
2018-07-17T16:02:18.160Z,1.40
2018-07-17T16:04:48.177Z,1.50
2018-07-17T16:07:18.733Z,1.60
2018-07-17T16:09:47.240Z,1.33
2018-07-17T16:12:15.644Z,1.73
2018-07-17T16:14:44.051Z,1.53
2018-07-17T16:17:12.715Z,1.70
2018-07-17T16:19:41.177Z,1.37
2018-07-17T16:22:09.362Z,1.57
2018-07-17T16:24:38.068Z,1.70
2018-07-17T16:27:06.859Z,1.43
2018-07-17T16:29:42.887Z,1.60
2018-07-17T16:32:14.459Z,1.93
2018-07-17T16:34:45.634Z,1.80
2018-07-17T16:37:14.235Z,1.90
2018-07-17T16:39:43.872Z,1.73
2018-07-17T16:42:17.397Z,1.93
2018-07-17T16:44:46.017Z,1.93
2018-07-17T16:47:14.677Z,2.23
2018-07-17T16:49:44.540Z,2.03
2018-07-17T16:52:13.142Z,1.93
2018-07-17T16:54:41.654Z,2.47
2018-07-17T16:57:10.314Z,2.30
2018-07-17T16:59:40.579Z,2.40
2018-07-17T17:02:11.041Z,2.17
2018-07-17T17:04:40.742Z,2.33
2018-07-17T17:07:09.315Z,2.10
2018-07-17T17:09:38.669Z,2.97
2018-07-17T17:12:08.973Z,2.87
2018-07-17T17:14:37.449Z,2.40
2018-07-17T17:17:06.141Z,2.37
2018-07-17T17:19:34.595Z,2.87
2018-07-17T17:22:03.149Z,2.67
2018-07-17T17:24:31.593Z,2.63
2018-07-17T17:27:00.596Z,2.73
2018-07-17T17:29:31.552Z,2.40
2018-07-17T17:31:59.792Z,2.80
2018-07-17T17:34:28.396Z,2.73
2018-07-17T17:36:56.818Z,2.57
2018-07-17T17:39:25.277Z,2.77
2018-07-17T17:41:53.334Z,2.87
2018-07-17T17:44:21.816Z,3.20
2018-07-17T17:46:50.215Z,2.80
2018-07-17T17:49:18.608Z,3.53
2018-07-17T17:51:47.157Z,2.70
2018-07-17T17:54:15.522Z,3.97
2018-07-17T17:56:46.749Z,3.37
2018-07-17T17:59:15.208Z,3.37
2018-07-17T18:01:43.633Z,3.13
2018-07-17T18:04:11.851Z,3.23
2018-07-17T18:06:40.461Z,3.60
2018-07-17T18:09:09.109Z,3.43
2018-07-17T18:11:38.077Z,3.70
2018-07-17T18:14:07.599Z,3.20
2018-07-17T18:16:36.314Z,3.50
2018-07-17T18:19:05.818Z,3.40
2018-07-17T18:21:34.445Z,3.23
2018-07-17T18:24:02.851Z,3.17
2018-07-17T18:26:31.584Z,3.40
2018-07-17T18:29:00.166Z,3.23
2018-07-17T18:31:28.629Z,3.30
2018-07-17T18:33:57.105Z,3.23
2018-07-17T18:36:25.701Z,3.37
2018-07-17T18:38:54.553Z,3.33
2018-07-17T18:41:26.543Z,3.20
2018-07-17T18:43:56.162Z,2.93
2018-07-17T18:46:27.120Z,3.07
2018-07-17T18:48:57.966Z,3.20
2018-07-17T18:51:29.218Z,3.50
2018-07-17T18:53:58.902Z,3.27
2018-07-17T18:56:27.498Z,2.70
2018-07-17T18:58:58.487Z,2.87
2018-07-17T19:01:27.114Z,3.30
2018-07-17T19:03:55.765Z,3.70
2018-07-17T19:06:24.261Z,3.30
2018-07-17T19:08:53.015Z,3.20
2018-07-17T19:11:24.084Z,2.93
2018-07-17T19:13:52.793Z,3.17
2018-07-17T19:16:21.305Z,2.93
2018-07-17T19:18:49.751Z,3.10
2018-07-17T19:21:19.209Z,3.10
2018-07-17T19:23:47.669Z,3.20
2018-07-17T19:26:16.075Z,3.03
2018-07-17T19:28:44.464Z,3.50
2018-07-17T19:31:13.029Z,3.30
2018-07-17T19:33:41.400Z,3.10
2018-07-17T19:36:09.748Z,2.83
2018-07-17T19:38:38.334Z,3.20
2018-07-17T19:41:06.711Z,3.03
2018-07-17T19:43:35.326Z,3.77
2018-07-17T19:46:03.957Z,4.07
2018-07-17T19:48:32.358Z,2.63
2018-07-17T19:51:01.518Z,3.27
2018-07-17T19:53:29.911Z,3.30
2018-07-17T19:55:58.401Z,3.43
2018-07-17T19:58:26.897Z,3.23
2018-07-17T20:00:55.282Z,2.97
2018-07-17T20:03:23.798Z,2.83
2018-07-17T20:05:52.160Z,3.20
2018-07-17T20:08:20.655Z,3.67
2018-07-17T20:10:49.142Z,3.60
2018-07-17T20:13:17.611Z,3.47
2018-07-17T20:15:46.145Z,3.00
2018-07-17T20:18:14.605Z,2.90
2018-07-17T20:20:43.071Z,3.07
2018-07-17T20:23:11.673Z,3.23
2018-07-17T20:25:41.073Z,3.03
2018-07-17T20:28:09.561Z,3.50
2018-07-17T20:30:38.213Z,3.10
2018-07-17T20:33:06.703Z,3.00
2018-07-17T20:35:35.349Z,3.50
2018-07-17T20:38:03.757Z,3.27
2018-07-17T20:40:32.402Z,3.10
2018-07-17T20:43:00.808Z,3.30
2018-07-17T20:45:29.276Z,3.10
2018-07-17T20:47:57.646Z,3.33
2018-07-17T20:50:26.075Z,3.37
2018-07-17T20:52:54.542Z,3.00
2018-07-17T20:55:22.943Z,3.00
2018-07-17T20:57:51.413Z,3.47
2018-07-17T21:00:19.811Z,3.20
2018-07-17T21:02:48.261Z,3.20
2018-07-17T21:05:16.501Z,3.00
2018-07-17T21:07:44.937Z,3.20
2018-07-17T21:10:13.395Z,3.47
2018-07-17T21:12:41.863Z,3.07
2018-07-17T21:15:10.340Z,3.13
2018-07-17T21:17:40.035Z,3.10
2018-07-17T21:20:08.604Z,3.47
2018-07-17T21:22:37.149Z,2.90
2018-07-17T21:25:06.356Z,3.53
2018-07-17T21:27:34.793Z,3.33
2018-07-17T21:30:03.178Z,3.33
2018-07-17T21:32:31.641Z,3.30
2018-07-17T21:35:06.537Z,3.27
2018-07-17T21:37:35.069Z,3.20
2018-07-17T21:40:03.513Z,3.80
2018-07-17T21:42:31.987Z,3.50
2018-07-17T21:45:00.421Z,3.53
2018-07-17T21:47:28.819Z,3.43
2018-07-17T21:49:57.236Z,2.97
2018-07-17T21:52:25.797Z,3.37
2018-07-17T21:54:54.189Z,3.10
2018-07-17T21:57:22.577Z,3.17
2018-07-17T21:59:51.021Z,3.13
2018-07-17T22:02:19.385Z,3.30
2018-07-17T22:04:47.776Z,2.87
2018-07-17T22:07:16.168Z,3.30
2018-07-17T22:09:44.549Z,3.47
2018-07-17T22:12:13.020Z,3.10
2018-07-17T22:14:41.518Z,3.37
2018-07-17T22:17:09.902Z,3.57
2018-07-17T22:19:38.328Z,3.07
2018-07-17T22:22:06.988Z,3.23
2018-07-17T22:24:35.409Z,3.30
2018-07-17T22:27:04.646Z,3.20
2018-07-17T22:29:33.089Z,3.20
2018-07-17T22:32:01.650Z,2.93
2018-07-17T22:34:30.041Z,3.20
2018-07-17T22:36:58.444Z,3.37
2018-07-17T22:39:27.011Z,3.43
2018-07-17T22:41:55.436Z,3.20
2018-07-17T22:44:23.857Z,3.23
2018-07-17T22:46:52.273Z,3.73
2018-07-17T22:49:21.512Z,3.53
2018-07-17T22:51:51.158Z,2.90
2018-07-17T22:54:19.653Z,2.90
2018-07-17T22:56:47.879Z,3.00
2018-07-17T22:59:16.913Z,2.90
2018-07-17T23:01:45.652Z,3.03
2018-07-17T23:04:14.200Z,3.30
2018-07-17T23:06:42.645Z,3.40
2018-07-17T23:09:11.641Z,3.43
2018-07-17T23:11:41.065Z,3.60
2018-07-17T23:14:09.963Z,3.40
2018-07-17T23:16:38.409Z,3.50
2018-07-17T23:19:07.330Z,3.30
2018-07-17T23:21:35.919Z,2.67
2018-07-17T23:24:04.365Z,3.10
2018-07-17T23:26:32.781Z,2.97
2018-07-17T23:29:01.190Z,3.03
2018-07-17T23:31:29.589Z,3.23
2018-07-17T23:33:58.025Z,3.13
2018-07-17T23:36:26.550Z,3.10
2018-07-17T23:38:54.965Z,3.37
2018-07-17T23:41:23.391Z,3.27
2018-07-17T23:43:51.859Z,2.70
2018-07-17T23:46:20.276Z,3.37
2018-07-17T23:48:48.716Z,3.30
2018-07-17T23:51:17.113Z,3.50
2018-07-17T23:53:45.538Z,3.17
2018-07-17T23:56:13.950Z,3.17
2018-07-17T23:58:42.384Z,2.80
